This is the latest recevied weather packets stored in our database for station/object KY4EF. If no packets are shown the sender has not sent any weather packets the latest 1 day(s).
| Time | Temp. | Humidity | Pressure | Rain* | Wind** | Luminosity | Snow |
|---|---|---|---|---|---|---|---|
| 1777990822 | 19.44° C | 49% | 1015 hPa | 0 mm | 0.45 m/s, 137° | 298 W/m² | - |
| 1777990519 | 18.89° C | 60% | 1015 hPa | 0 mm | 0.45 m/s, 165° | 300 W/m² | - |
| 1777990216 | 19.44° C | 62% | 1014.9 hPa | 0 mm | 0.45 m/s, 168° | 292 W/m² | - |
| 1777989913 | 19.44° C | 58% | 1015 hPa | 0 mm | 0.45 m/s, 247° | 356 W/m² | - |
| 1777989610 | 20° C | 64% | 1015 hPa | 0 mm | 0.89 m/s, 123° | 402 W/m² | - |
| 1777989307 | 17.78° C | 70% | 1015.1 hPa | 0 mm | 0.45 m/s, 163° | 399 W/m² | - |
| 1777989003 | 16.67° C | 73% | 1014.8 hPa | 0 mm | 0 m/s | 402 W/m² | - |
| 1777988699 | 17.78° C | 73% | 1015 hPa | 0 mm | 0.45 m/s, 5° | 396 W/m² | - |
| 1777988396 | 17.22° C | 72% | 1015 hPa | 0 mm | 0 m/s | 366 W/m² | - |
| 1777988094 | 16.67° C | 70% | 1015 hPa | 0 mm | 0 m/s | 316 W/m² | - |
| 1777987794 | 15.56° C | 74% | 1014.7 hPa | 0 mm | 0 m/s | 292 W/m² | - |
| 1777987491 | 15.56° C | 74% | 1014.9 hPa | 0 mm | 0 m/s | 289 W/m² | - |
| 1777987189 | 15° C | 75% | 1014.9 hPa | 0 mm | 0 m/s | 276 W/m² | - |
| 1777986885 | 13.89° C | 79% | 1014.7 hPa | 0 mm | 0.45 m/s, 171° | 270 W/m² | - |
| 1777986583 | 13.89° C | 79% | 1014.5 hPa | 0 mm | 0 m/s | 260 W/m² | - |
| 1777986281 | 12.78° C | 84% | 1014.8 hPa | 0 mm | 0 m/s | 232 W/m² | - |
| 1777985978 | 12.78° C | 80% | 1014.7 hPa | 0 mm | 0.45 m/s, 171° | 235 W/m² | - |
| 1777985675 | 12.22° C | 82% | 1014.9 hPa | 0 mm | 0 m/s | 241 W/m² | - |
| 1777985372 | 10.56° C | 90% | 1014.6 hPa | 0 mm | 0 m/s | 234 W/m² | - |
| 1777985069 | 9.44° C | 94% | 1014.7 hPa | 0 mm | 0 m/s | 145 W/m² | - |
| 1777984765 | 8.89° C | 96% | 1014.7 hPa | 0 mm | 0 m/s | 65 W/m² | - |
| 1777984461 | 8.33° C | 98% | 1014.9 hPa | 0 mm | 0 m/s | 53 W/m² | - |
| 1777984157 | 7.78° C | 99% | 1014.7 hPa | 0 mm | 0 m/s | 45 W/m² | - |
| 1777983855 | 7.78° C | 99% | 1014.6 hPa | 0 mm | 0 m/s | 38 W/m² | - |
| 1777983552 | 7.22° C | 99% | 1014.6 hPa | 0 mm | 0 m/s | 35 W/m² | - |
* Rain latest hour (hover to see other rain measurements)
** Current wind speed in m/s (hover to see current wind gust speed)